»·PEaware :: N612MN KSBP-KSBA

N612MN :: KSBP-KSBA

FLIGHT INFORMATION

Flight Status: Arrived
Operator: Privately registered:
United States
More flights under this callsign
Pilot: Jeff S. (17264)
Aircraft: CIRRUS SR-20
(SR20)
More flights by this aircraft type
Origin: KSBP San Luis Co Regl
United States
Destination: KSBA Santa Barbara Mun
United States
More flights between these airports :: More routes between these airports
Route: +
File this flight plan on PilotEdge
Remarks:
Altitude:
(Current/Filed)
0ft
Speed:
(Current/Filed)
0kts
Departed: 23-Dec-17 09:40 PM
Arrived: 23-Dec-17 10:21 PM
Distance/Time
Traveled:
62nm/0:40
Distance/Time
To Go:
Arrived

Flight Plot

Page will automatically refresh every two minutes.


Map Options




Map Legend


Flown Route
Filed Route
Departure Airport
Arrival Airport
Navaid (VOR, NDB)
Fix

Horizontal Profiles

Position Reports

Time Latitude Longitude Heading Altitude Ground
Speed
23-Dec-17 21:43 35.235637 -120.635870 125 178ft 12kts
23-Dec-17 21:44 35.233985 -120.632984 124 178ft 6kts
23-Dec-17 21:45 35.233289 -120.632154 188 177ft 0kts
23-Dec-17 21:46 35.235224 -120.637081 304 178ft 74kts
23-Dec-17 21:47 35.248003 -120.660926 297 911ft 90kts
23-Dec-17 21:48 35.230450 -120.664370 146 1834ft 96kts
23-Dec-17 21:49 35.213385 -120.642755 110 2612ft 110kts
23-Dec-17 21:50 35.194067 -120.603982 130 2809ft 150kts
23-Dec-17 21:51 35.166055 -120.569905 137 3589ft 131kts
23-Dec-17 21:52 35.140916 -120.543183 139 4461ft 109kts
23-Dec-17 21:53 35.119916 -120.521749 140 5324ft 88kts
23-Dec-17 21:54 35.096305 -120.498112 140 5479ft 137kts
23-Dec-17 21:55 35.064143 -120.466312 140 5473ft 155kts
23-Dec-17 21:56 35.029959 -120.432578 140 5472ft 159kts
23-Dec-17 21:57 34.995365 -120.398495 139 5471ft 161kts
23-Dec-17 21:58 34.960757 -120.364332 140 5471ft 158kts
23-Dec-17 21:59 34.927817 -120.331881 142 5471ft 156kts
23-Dec-17 22:00 34.897112 -120.301735 142 5472ft 156kts
23-Dec-17 22:01 34.863203 -120.268447 142 5473ft 157kts
23-Dec-17 22:02 34.829292 -120.235180 142 5473ft 157kts
23-Dec-17 22:03 34.795373 -120.201967 141 5477ft 158kts
23-Dec-17 22:04 34.760629 -120.167951 140 5472ft 162kts
23-Dec-17 22:05 34.725468 -120.133553 141 5472ft 162kts
23-Dec-17 22:06 34.690205 -120.099107 141 5472ft 162kts
23-Dec-17 22:07 34.655032 -120.064788 141 5472ft 162kts
23-Dec-17 22:08 34.619661 -120.030316 141 5472ft 163kts
23-Dec-17 22:09 34.584396 -119.995996 140 5453ft 164kts
23-Dec-17 22:10 34.547345 -119.959951 141 4971ft 170kts
23-Dec-17 22:11 34.512751 -119.926941 155 4439ft 148kts
23-Dec-17 22:12 34.504600 -119.956043 302 4320ft 111kts
23-Dec-17 22:13 34.530807 -119.967063 32 4214ft 89kts
23-Dec-17 22:14 34.540689 -119.945092 74 4009ft 95kts
23-Dec-17 22:15 34.543633 -119.903944 87 3803ft 102kts
23-Dec-17 22:16 34.542346 -119.869998 103 3910ft 112kts
23-Dec-17 22:17 34.531699 -119.843463 119 4155ft 101kts
23-Dec-17 22:18 34.511981 -119.807694 129 4176ft 118kts
23-Dec-17 22:19 34.490560 -119.785049 142 4013ft 135kts
23-Dec-17 22:20 34.453247 -119.774438 201 3343ft 149kts
23-Dec-17 22:21 34.425885 -119.798006 331 1330ft 167kts
23-Dec-17 22:22 34.427604 -119.847393 268 33ft 148kts
23-Dec-17 22:23 34.411577 -119.863692 112 1043ft 123kts
23-Dec-17 22:24 34.407017 -119.826161 92 1061ft 105kts
23-Dec-17 22:25 34.417477 -119.808354 352 582ft 74kts
23-Dec-17 22:26 34.428111 -119.821695 273 289ft 64kts
23-Dec-17 22:27 34.427794 -119.839894 269 14ft 26kts
23-Dec-17 22:28 34.429474 -119.842268 311 14ft 17kts
23-Dec-17 22:32 34.429009 -119.845158 292 14ft 0kts
23-Dec-17 22:33 34.429009 -119.845158 292 14ft 0kts
23-Dec-17 22:35 34.429376 -119.844283 154 14ft 0kts
23-Dec-17 22:39 34.429376 -119.844283 154 14ft 0kts
23-Dec-17 22:40 34.429376 -119.844283 154 14ft 0kts
23-Dec-17 22:41 34.429376 -119.844283 154 14ft 0kts

Navigation Log

Ident Type
1. KSBP Airport
2. KSBA Airport